Time;durP1;ratioP1;P1;durP2;ratioP2;P2;SDS_P1;SDS_P2;PMS_P1;PMS_P2;Temp;Humidity;BMP_temperature;BMP_pressure;BME280_temperature;BME280_humidity;BME280_pressure;Samples;Min_cycle;Max_cycle;Signal;HPM_P1;HPM_P2
2023/08/07 00:01:27;;;;;;;5.80;3.40;;;14.70;99.90;;;;;;2621969;46;20156;31
2023/08/07 00:04:02;;;;;;;6.00;3.63;;;14.70;99.90;;;;;;2622083;46;20030;31
2023/08/07 00:06:37;;;;;;;5.40;4.30;;;14.70;99.90;;;;;;2603526;54;20921;31
2023/08/07 00:09:15;;;;;;;6.97;4.00;;;14.70;99.90;;;;;;2603655;54;20022;31
2023/08/07 00:11:50;;;;;;;7.22;4.22;;;14.70;99.90;;;;;;2603469;54;20046;31
2023/08/07 00:14:25;;;;;;;7.35;4.30;;;14.70;99.90;;;;;;2603489;54;20023;31
2023/08/07 00:17:00;;;;;;;10.20;4.60;;;14.70;99.90;;;;;;2603590;54;20168;31
2023/08/07 00:19:35;;;;;;;7.20;4.63;;;14.70;99.90;;;;;;2603457;54;20030;31
2023/08/07 00:22:10;;;;;;;6.93;4.28;;;14.70;99.90;;;;;;2773389;31;21559;31
2023/08/07 00:24:49;;;;;;;10.30;4.75;;;14.60;99.90;;;;;;2603836;54;20081;31
2023/08/07 00:27:23;;;;;;;5.45;4.30;;;14.60;99.90;;;;;;2603521;54;20138;31
2023/08/07 00:29:59;;;;;;;8.07;4.30;;;14.60;99.90;;;;;;2622115;46;20030;31
2023/08/07 00:32:33;;;;;;;5.57;4.35;;;14.70;99.90;;;;;;2603649;54;20034;31
2023/08/07 00:35:10;;;;;;;7.90;4.75;;;14.70;99.90;;;;;;2603476;54;20917;31
2023/08/07 00:37:45;;;;;;;4.55;3.90;;;14.70;99.90;;;;;;2603763;54;20034;31
2023/08/07 00:40:23;;;;;;;5.73;4.47;;;14.70;99.90;;;;;;2603674;54;20121;31
2023/08/07 00:42:58;;;;;;;11.30;4.95;;;14.70;99.90;;;;;;2603661;54;20260;31
2023/08/07 00:45:33;;;;;;;6.70;4.30;;;14.70;99.90;;;;;;2603549;54;20092;31
2023/08/07 00:48:08;;;;;;;6.82;3.30;;;14.60;99.90;;;;;;2603380;54;20911;31
2023/08/07 00:50:45;;;;;;;7.73;4.17;;;14.60;99.90;;;;;;2603635;54;20116;31
2023/08/07 00:53:22;;;;;;;3.80;3.40;;;14.60;99.90;;;;;;2603833;54;20087;31
2023/08/07 00:56:02;;;;;;;6.30;4.28;;;14.60;99.90;;;;;;2621168;46;20022;31
2023/08/07 00:58:39;;;;;;;5.40;3.22;;;14.60;99.90;;;;;;2622144;46;20033;31
2023/08/07 01:01:14;;;;;;;5.65;4.20;;;14.70;99.90;;;;;;2603659;54;20050;31
2023/08/07 01:03:49;;;;;;;7.55;4.43;;;14.70;99.90;;;;;;2603465;54;20911;31
2023/08/07 01:06:24;;;;;;;4.50;3.55;;;14.70;99.90;;;;;;2603321;54;20031;31
2023/08/07 01:08:59;;;;;;;;;;;14.60;99.90;;;;;;2603539;54;20091;31
2023/08/07 01:11:39;;;;;;;6.40;4.28;;;14.60;99.90;;;;;;2603291;54;20804;31
2023/08/07 01:14:16;;;;;;;11.20;5.55;;;14.60;99.90;;;;;;2603319;54;21013;31
2023/08/07 01:16:53;;;;;;;7.70;4.75;;;14.60;99.90;;;;;;2621966;46;20133;31
2023/08/07 01:19:30;;;;;;;6.78;5.10;;;14.60;99.90;;;;;;2603528;54;20033;31
2023/08/07 01:22:13;;;;;;;8.32;4.80;;;14.60;99.90;;;;;;2603669;54;20104;31
2023/08/07 01:24:48;;;;;;;8.85;6.28;;;14.60;99.90;;;;;;2603452;54;20792;31
2023/08/07 01:27:31;;;;;;;8.80;6.03;;;14.50;99.90;;;;;;2621779;46;20038;31
2023/08/07 01:30:15;;;;;;;11.35;6.50;;;14.60;99.90;;;;;;2603398;54;20918;31
2023/08/07 01:32:57;;;;;;;14.65;12.40;;;14.50;99.90;;;;;;2603647;54;20116;31
2023/08/07 01:35:37;;;;;;;10.57;7.15;;;14.50;99.90;;;;;;2603288;54;20042;31
2023/08/07 01:38:15;;;;;;;6.97;5.63;;;14.50;99.90;;;;;;2603343;54;20080;31
2023/08/07 01:40:50;;;;;;;6.30;4.57;;;14.50;99.90;;;;;;2603313;54;20112;31
2023/08/07 01:43:26;;;;;;;5.90;4.55;;;14.50;99.90;;;;;;2603307;54;20908;31
2023/08/07 01:46:01;;;;;;;5.90;4.03;;;14.50;99.90;;;;;;2603327;54;20030;31
2023/08/07 01:48:36;;;;;;;5.70;4.20;;;14.50;99.90;;;;;;2603441;54;20037;31
2023/08/07 01:51:11;;;;;;;8.55;4.35;;;14.50;99.90;;;;;;2603226;54;20974;31
2023/08/07 01:53:49;;;;;;;;;;;14.40;99.90;;;;;;2603628;54;20030;31
2023/08/07 01:56:24;;;;;;;8.38;4.20;;;14.40;99.90;;;;;;2603167;54;19957;31
2023/08/07 01:58:59;;;;;;;5.57;4.13;;;14.40;99.90;;;;;;2603139;54;20028;31
2023/08/07 02:01:34;;;;;;;5.90;4.50;;;14.40;99.90;;;;;;2603233;54;20061;31
2023/08/07 02:04:09;;;;;;;7.10;4.13;;;14.40;99.90;;;;;;2603143;54;20029;31
2023/08/07 02:06:44;;;;;;;8.27;4.20;;;14.30;99.90;;;;;;2602960;54;20042;31
2023/08/07 02:09:24;;;;;;;6.03;4.88;;;14.30;99.90;;;;;;2603015;54;21017;31
2023/08/07 02:11:59;;;;;;;6.50;5.00;;;14.30;99.90;;;;;;2621423;46;20042;31
2023/08/07 02:14:34;;;;;;;8.20;4.70;;;14.20;99.90;;;;;;2603227;54;20081;31
2023/08/07 02:17:09;;;;;;;3.10;2.38;;;14.20;99.90;;;;;;2603371;54;20038;31
2023/08/07 02:19:44;;;;;;;6.50;4.50;;;14.20;99.90;;;;;;2773055;31;21565;31
2023/08/07 02:22:19;;;;;;;5.65;4.45;;;14.20;99.90;;;;;;2603212;54;21863;31
2023/08/07 02:25:00;;;;;;;6.28;4.32;;;14.20;99.90;;;;;;2603209;54;20903;31
2023/08/07 02:27:35;;;;;;;7.63;4.03;;;14.20;99.90;;;;;;2603071;54;20037;31
2023/08/07 02:30:11;;;;;;;5.68;4.00;;;14.30;99.90;;;;;;2603225;54;20107;31
2023/08/07 02:32:46;;;;;;;6.95;4.50;;;14.30;99.90;;;;;;2603251;54;20029;31
2023/08/07 02:35:21;;;;;;;6.47;4.93;;;14.30;99.90;;;;;;2602968;54;20077;31
2023/08/07 02:37:58;;;;;;;5.88;5.10;;;14.30;99.90;;;;;;2621683;47;20834;31
2023/08/07 02:40:38;;;;;;;7.20;5.03;;;14.30;99.90;;;;;;2621413;47;20026;31
2023/08/07 02:43:14;;;;;;;6.07;4.50;;;14.30;99.90;;;;;;2701676;39;21508;31
2023/08/07 02:45:49;;;;;;;5.97;4.13;;;14.30;99.90;;;;;;2621603;47;21147;31
2023/08/07 02:48:24;;;;;;;6.47;4.17;;;14.30;99.90;;;;;;2603156;54;20234;31
2023/08/07 02:50:59;;;;;;;10.60;4.80;;;14.30;99.90;;;;;;2602907;54;20887;31
2023/08/07 02:53:34;;;;;;;6.50;4.60;;;14.30;99.90;;;;;;2621300;47;20934;31
2023/08/07 02:56:13;;;;;;;5.70;4.60;;;14.30;99.90;;;;;;2603078;54;20112;31
2023/08/07 02:58:48;;;;;;;6.97;4.88;;;14.30;99.90;;;;;;2603096;54;20050;31
2023/08/07 03:01:23;;;;;;;6.65;3.33;;;14.40;99.90;;;;;;2602984;54;20919;31
2023/08/07 03:03:58;;;;;;;6.55;3.65;;;14.40;99.90;;;;;;2603127;54;20056;31
2023/08/07 03:06:33;;;;;;;6.37;3.80;;;14.40;99.90;;;;;;2603085;54;20061;31
2023/08/07 03:09:08;;;;;;;5.80;3.95;;;14.40;99.90;;;;;;2603148;54;20022;31
2023/08/07 03:11:46;;;;;;;7.65;4.10;;;14.40;99.90;;;;;;2602956;54;20936;31
2023/08/07 03:14:21;;;;;;;7.83;4.53;;;14.50;99.90;;;;;;2602921;54;20874;31
2023/08/07 03:16:56;;;;;;;6.85;4.43;;;14.40;99.90;;;;;;2602881;54;21392;31
2023/08/07 03:19:33;;;;;;;5.65;3.90;;;14.50;99.90;;;;;;2603087;54;20029;31
2023/08/07 03:22:08;;;;;;;6.60;4.05;;;14.50;99.90;;;;;;2603693;54;20944;31
2023/08/07 03:24:43;;;;;;;5.35;3.55;;;14.50;99.90;;;;;;2603862;54;20892;31
2023/08/07 03:27:21;;;;;;;4.40;3.30;;;14.50;99.90;;;;;;2603878;54;21167;31
2023/08/07 03:29:56;;;;;;;6.13;3.80;;;14.50;99.90;;;;;;2603644;54;20038;31
2023/08/07 03:32:37;;;;;;;5.38;3.75;;;14.50;99.90;;;;;;2622112;46;20052;31
2023/08/07 03:35:12;;;;;;;9.55;4.40;;;14.60;99.90;;;;;;2603654;54;20030;31
2023/08/07 03:37:47;;;;;;;;;;;14.60;99.90;;;;;;2603784;54;24174;31
2023/08/07 03:40:22;;;;;;;6.05;3.15;;;14.60;99.90;;;;;;2603656;54;20016;31
2023/08/07 03:43:01;;;;;;;7.75;3.95;;;14.60;99.90;;;;;;2603518;54;20913;31
2023/08/07 03:45:35;;;;;;;5.55;3.97;;;14.60;99.90;;;;;;2603626;54;20870;31
2023/08/07 03:48:10;;;;;;;8.13;3.70;;;14.60;99.90;;;;;;2603627;54;20841;31
2023/08/07 03:50:45;;;;;;;8.33;4.97;;;14.60;99.90;;;;;;2603585;54;20037;31
2023/08/07 03:53:20;;;;;;;5.95;3.90;;;14.60;99.90;;;;;;2603802;54;20116;31
2023/08/07 03:55:55;;;;;;;9.60;4.50;;;14.60;99.90;;;;;;2603681;54;20331;31
2023/08/07 03:58:33;;;;;;;6.97;4.50;;;14.60;99.90;;;;;;2603683;54;20026;31
2023/08/07 04:01:08;;;;;;;8.77;5.03;;;14.60;99.90;;;;;;2620819;46;20023;31
2023/08/07 04:03:44;;;;;;;6.72;5.25;;;14.60;99.90;;;;;;2603561;54;20824;31
2023/08/07 04:06:28;;;;;;;9.20;4.40;;;14.60;99.90;;;;;;2603488;54;20080;31
2023/08/07 04:09:04;;;;;;;5.07;4.57;;;14.70;99.90;;;;;;2603401;54;20854;31
2023/08/07 04:11:38;;;;;;;4.18;3.05;;;14.70;99.90;;;;;;2603610;54;20981;31
2023/08/07 04:14:22;;;;;;;6.63;3.90;;;14.70;99.90;;;;;;2603671;54;20023;31
2023/08/07 04:16:56;;;;;;;7.93;4.80;;;14.70;99.90;;;;;;2603740;54;20115;31
2023/08/07 04:19:31;;;;;;;5.80;4.72;;;14.70;99.90;;;;;;2621911;46;20036;31
2023/08/07 04:22:09;;;;;;;5.67;4.10;;;14.70;99.90;;;;;;2615860;46;20085;31
2023/08/07 04:24:41;;;;;;;4.17;3.37;;;14.70;99.90;;;;;;2620457;46;20585;31
2023/08/07 04:27:17;;;;;;;8.18;4.47;;;14.70;99.90;;;;;;2603247;54;20029;31
2023/08/07 04:29:55;;;;;;;11.00;5.83;;;14.70;99.90;;;;;;2603476;54;20037;31
2023/08/07 04:32:32;;;;;;;11.20;5.43;;;14.80;99.90;;;;;;2603527;54;20103;31
2023/08/07 04:35:10;;;;;;;7.65;4.93;;;14.80;99.90;;;;;;2603457;54;20026;31
2023/08/07 04:37:44;;;;;;;14.68;5.50;;;14.80;99.90;;;;;;2621478;46;20030;31
2023/08/07 04:40:19;;;;;;;7.72;5.25;;;14.80;99.90;;;;;;2602863;54;20080;31
2023/08/07 04:43:02;;;;;;;9.15;5.22;;;14.80;99.90;;;;;;2613618;46;20022;31
2023/08/07 04:45:45;;;;;;;8.05;6.05;;;14.80;99.90;;;;;;2622039;46;20140;31
2023/08/07 04:48:22;;;;;;;7.15;5.07;;;14.80;99.90;;;;;;2603279;54;20876;31
2023/08/07 04:51:00;;;;;;;11.18;6.18;;;14.80;99.90;;;;;;2603764;54;20089;31
2023/08/07 04:53:37;;;;;;;8.27;5.07;;;14.80;99.90;;;;;;2603522;54;20026;31
2023/08/07 04:56:13;;;;;;;8.00;5.30;;;14.80;99.90;;;;;;2720183;39;21570;31
2023/08/07 04:58:54;;;;;;;6.00;4.80;;;14.90;99.90;;;;;;2603353;54;21009;31
2023/08/07 05:01:35;;;;;;;7.20;4.30;;;14.90;99.90;;;;;;2603626;54;20836;31
2023/08/07 05:04:09;;;;;;;8.30;5.30;;;14.90;99.90;;;;;;2603754;54;20038;31
2023/08/07 05:06:48;;;;;;;9.02;5.57;;;14.90;99.90;;;;;;2603636;54;20026;31
2023/08/07 05:09:23;;;;;;;15.32;4.53;;;14.90;99.90;;;;;;2603412;54;20108;31
2023/08/07 05:12:05;;;;;;;7.25;4.10;;;14.90;99.90;;;;;;2603445;54;20128;31
2023/08/07 05:14:49;;;;;;;6.75;4.10;;;14.90;99.90;;;;;;2603672;54;20073;31
2023/08/07 05:17:28;;;;;;;3.97;3.58;;;14.90;99.90;;;;;;2603563;54;20424;31
2023/08/07 05:20:08;;;;;;;5.27;4.03;;;14.90;99.90;;;;;;2603461;54;20874;31
2023/08/07 05:22:47;;;;;;;4.75;4.25;;;15.00;99.90;;;;;;2603527;54;20092;31
2023/08/07 05:25:26;;;;;;;5.75;3.85;;;15.00;99.90;;;;;;2603626;54;20026;31
2023/08/07 05:28:02;;;;;;;3.72;2.90;;;15.00;99.90;;;;;;2603335;54;20918;31
2023/08/07 05:30:41;;;;;;;4.80;3.70;;;15.00;99.90;;;;;;2603605;54;20087;31
2023/08/07 05:33:21;;;;;;;4.45;3.30;;;15.10;99.90;;;;;;2603555;54;20841;31
2023/08/07 05:35:58;;;;;;;4.80;3.20;;;15.10;99.90;;;;;;2603611;54;20246;31
2023/08/07 05:38:34;;;;;;;5.05;3.65;;;15.10;99.90;;;;;;2603252;54;20026;31
2023/08/07 05:41:11;;;;;;;4.05;3.30;;;15.10;99.90;;;;;;2603256;54;20026;31
2023/08/07 05:43:48;;;;;;;4.20;3.00;;;15.10;99.90;;;;;;2602987;54;19941;31
2023/08/07 05:46:27;;;;;;;6.15;3.30;;;15.20;99.90;;;;;;2603489;54;20022;31
2023/08/07 05:49:06;;;;;;;4.85;2.70;;;15.20;99.90;;;;;;2602525;54;20033;31
2023/08/07 05:51:44;;;;;;;4.00;3.60;;;15.30;99.90;;;;;;2613519;46;20025;31
2023/08/07 05:54:27;;;;;;;4.95;3.30;;;15.30;99.90;;;;;;2603337;54;20053;31
2023/08/07 05:57:03;;;;;;;4.93;3.33;;;15.30;99.90;;;;;;2621645;46;20929;31
2023/08/07 05:59:43;;;;;;;4.75;3.10;;;15.30;99.90;;;;;;2603399;54;20926;31
2023/08/07 06:02:17;;;;;;;4.13;3.00;;;15.30;99.90;;;;;;2603181;54;20799;31
2023/08/07 06:04:56;;;;;;;3.20;2.90;;;15.30;99.90;;;;;;2603228;54;20864;31
2023/08/07 06:07:34;;;;;;;5.33;3.60;;;15.30;99.90;;;;;;2621511;46;20030;31
2023/08/07 06:10:12;;;;;;;3.85;3.40;;;15.30;99.90;;;;;;2621699;46;20022;31
2023/08/07 06:12:50;;;;;;;3.40;3.08;;;15.40;99.90;;;;;;2603424;54;20026;31
2023/08/07 06:15:34;;;;;;;4.53;2.97;;;15.30;99.90;;;;;;2602384;54;20143;31
2023/08/07 06:18:11;;;;;;;6.10;3.28;;;15.30;99.90;;;;;;2603358;54;20049;31
2023/08/07 06:20:51;;;;;;;7.45;2.97;;;15.30;99.90;;;;;;2621726;46;20033;31
2023/08/07 06:23:29;;;;;;;5.22;2.97;;;15.20;99.90;;;;;;2603169;54;20903;31
2023/08/07 06:26:08;;;;;;;4.23;2.63;;;15.20;99.90;;;;;;2603128;54;20799;31
2023/08/07 06:28:48;;;;;;;3.73;2.80;;;15.20;99.90;;;;;;2603362;54;20246;31
2023/08/07 06:31:25;;;;;;;3.58;2.50;;;15.20;99.90;;;;;;2603283;54;20892;31
2023/08/07 06:34:02;;;;;;;4.22;3.00;;;15.20;99.90;;;;;;2603178;54;20793;31
2023/08/07 06:36:45;;;;;;;3.40;2.70;;;15.20;99.90;;;;;;2603093;54;20144;31
2023/08/07 06:39:23;;;;;;;5.25;2.83;;;15.30;99.90;;;;;;2603204;54;20934;31
2023/08/07 06:42:00;;;;;;;4.20;2.75;;;15.30;99.90;;;;;;2603035;54;20860;31
2023/08/07 06:44:44;;;;;;;4.07;3.03;;;15.40;99.90;;;;;;2603091;54;20042;31
2023/08/07 06:47:24;;;;;;;5.30;2.92;;;15.40;99.90;;;;;;2603195;54;20023;31
2023/08/07 06:50:03;;;;;;;4.68;2.90;;;15.40;99.90;;;;;;2603251;54;20050;31
2023/08/07 06:52:43;;;;;;;7.03;2.47;;;15.50;99.90;;;;;;2603101;54;20022;31
2023/08/07 06:55:19;;;;;;;5.15;3.15;;;15.60;99.90;;;;;;2603405;54;20105;31
2023/08/07 06:57:58;;;;;;;3.10;2.80;;;15.70;99.90;;;;;;2622082;46;20822;31
2023/08/07 07:00:36;;;;;;;4.07;2.80;;;15.70;99.90;;;;;;2603266;54;20023;31
2023/08/07 07:03:17;;;;;;;5.93;2.70;;;15.80;99.90;;;;;;2603944;54;20026;31
2023/08/07 07:05:54;;;;;;;3.15;2.42;;;15.80;99.90;;;;;;2603775;54;20823;31
2023/08/07 07:08:33;;;;;;;6.00;2.65;;;15.90;99.90;;;;;;2622445;46;20111;31
2023/08/07 07:11:09;;;;;;;2.50;2.30;;;16.00;99.90;;;;;;2603064;54;19965;31
2023/08/07 07:13:46;;;;;;;4.00;2.35;;;16.10;99.90;;;;;;2603881;54;20807;31
2023/08/07 07:16:21;;;;;;;3.50;2.08;;;16.10;99.90;;;;;;2603800;54;21016;31
2023/08/07 07:18:59;;;;;;;3.80;2.30;;;16.20;99.90;;;;;;2603671;54;20045;31
2023/08/07 07:21:32;;;;;;;3.85;2.30;;;16.30;99.90;;;;;;2603765;54;22312;31
2023/08/07 07:24:14;;;;;;;3.50;2.25;;;16.40;99.90;;;;;;2604000;54;20023;31
2023/08/07 07:26:53;;;;;;;3.05;2.53;;;16.50;99.90;;;;;;2603909;54;20955;31
2023/08/07 07:29:30;;;;;;;5.00;2.30;;;16.60;99.90;;;;;;2603636;54;21292;31
2023/08/07 07:32:06;;;;;;;4.03;2.50;;;16.70;99.90;;;;;;2603795;54;20115;31
2023/08/07 07:34:42;;;;;;;3.17;2.10;;;16.80;99.90;;;;;;2603806;54;20888;31
2023/08/07 07:37:17;;;;;;;3.15;1.90;;;17.10;99.90;;;;;;2603620;54;20823;31
2023/08/07 07:40:00;;;;;;;3.65;2.60;;;17.30;99.90;;;;;;2603865;54;20026;31
2023/08/07 07:42:36;;;;;;;6.20;2.50;;;17.50;99.90;;;;;;2603879;54;20030;31
2023/08/07 07:45:13;;;;;;;4.73;2.43;;;17.60;99.90;;;;;;2773641;31;25121;31
2023/08/07 07:47:50;;;;;;;3.00;2.03;;;17.80;99.90;;;;;;2603776;54;20027;31
2023/08/07 07:50:29;;;;;;;6.38;2.10;;;18.00;99.90;;;;;;2603717;54;20869;31
2023/08/07 07:53:06;;;;;;;3.73;2.20;;;18.20;99.90;;;;;;2603767;54;20022;31
2023/08/07 07:55:50;;;;;;;4.90;2.20;;;18.30;99.90;;;;;;2603807;54;20034;31
2023/08/07 07:58:26;;;;;;;5.50;1.80;;;18.30;99.90;;;;;;2622185;46;20099;31
2023/08/07 08:01:03;;;;;;;3.37;1.97;;;18.40;99.90;;;;;;2702169;39;21461;31
2023/08/07 08:03:43;;;;;;;2.88;1.77;;;18.60;99.90;;;;;;2603561;54;20107;31
2023/08/07 08:06:21;;;;;;;3.70;2.28;;;18.80;99.90;;;;;;2603788;54;20042;31
2023/08/07 08:08:59;;;;;;;2.80;2.20;;;18.80;99.90;;;;;;2622324;46;20022;31
2023/08/07 08:11:37;;;;;;;3.55;2.15;;;18.90;99.90;;;;;;2603461;54;20019;31
2023/08/07 08:14:13;;;;;;;4.95;2.60;;;18.80;99.90;;;;;;2603941;54;20046;31
2023/08/07 08:16:53;;;;;;;;;;;18.70;99.90;;;;;;2604036;54;20057;31
2023/08/07 08:19:33;;;;;;;3.40;2.10;;;18.80;99.90;;;;;;2603879;54;19935;31
2023/08/07 08:22:31;;;;;;;4.10;2.65;;;19.10;99.90;;;;;;2603767;54;20033;31
2023/08/07 08:25:10;;;;;;;7.57;2.75;;;19.30;99.90;;;;;;2603610;54;20037;31
2023/08/07 08:27:49;;;;;;;5.30;2.38;;;19.50;99.90;;;;;;2603600;54;20875;31
2023/08/07 08:30:27;;;;;;;3.97;2.45;;;19.60;99.90;;;;;;2609559;46;20029;31
2023/08/07 08:33:09;;;;;;;4.20;2.70;;;19.70;99.90;;;;;;2621983;46;20031;31
2023/08/07 08:35:44;;;;;;;7.10;2.40;;;19.60;99.90;;;;;;2627426;46;20904;31
2023/08/07 08:38:20;;;;;;;5.20;2.28;;;19.80;99.90;;;;;;2702349;39;20971;31
2023/08/07 08:40:57;;;;;;;3.72;2.47;;;19.90;99.90;;;;;;2603499;54;20107;31
2023/08/07 08:43:39;;;;;;;3.85;2.25;;;20.00;99.90;;;;;;2621811;46;20867;31
2023/08/07 08:46:15;;;;;;;4.53;2.80;;;19.90;99.90;;;;;;2603643;54;20478;31
2023/08/07 08:48:54;;;;;;;3.30;2.30;;;19.70;99.90;;;;;;2621933;46;20041;31
2023/08/07 08:51:29;;;;;;;4.35;2.47;;;19.50;99.90;;;;;;2603594;54;20844;31
2023/08/07 08:54:07;;;;;;;4.63;2.30;;;19.40;99.90;;;;;;2613256;46;20026;31
2023/08/07 08:56:43;;;;;;;6.80;2.90;;;19.50;99.90;;;;;;2621138;46;20879;31
2023/08/07 08:59:21;;;;;;;4.05;2.58;;;19.30;99.90;;;;;;2603436;54;20865;31
2023/08/07 09:02:00;;;;;;;5.33;2.37;;;19.50;99.90;;;;;;2603709;54;20899;31
2023/08/07 09:04:36;;;;;;;5.93;2.20;;;20.00;99.90;;;;;;2603658;54;20773;31
2023/08/07 09:07:14;;;;;;;7.03;2.65;;;20.10;99.90;;;;;;2603533;54;20034;31
2023/08/07 09:09:48;;;;;;;3.15;2.30;;;20.20;99.90;;;;;;2603648;54;20044;31
2023/08/07 09:12:25;;;;;;;3.42;2.38;;;20.20;99.90;;;;;;2621890;46;20097;31
2023/08/07 09:15:06;;;;;;;5.47;2.17;;;20.20;99.90;;;;;;2613956;46;20030;31
2023/08/07 09:17:44;;;;;;;3.35;2.17;;;20.50;99.90;;;;;;2609298;46;20097;31
2023/08/07 09:20:21;;;;;;;4.57;2.00;;;20.90;99.90;;;;;;2603486;54;20953;31
2023/08/07 09:22:56;;;;;;;4.53;2.03;;;21.30;99.90;;;;;;2603446;54;20018;31
2023/08/07 09:25:32;;;;;;;4.03;1.85;;;21.60;99.90;;;;;;2603492;54;20043;31
2023/08/07 09:28:11;;;;;;;4.15;2.33;;;21.70;99.90;;;;;;2621868;46;20057;31
2023/08/07 09:30:49;;;;;;;3.60;2.10;;;21.40;99.90;;;;;;2603673;54;20902;31
2023/08/07 09:33:30;;;;;;;3.53;1.80;;;21.50;99.90;;;;;;2603503;54;20081;31
2023/08/07 09:36:07;;;;;;;3.40;2.10;;;21.70;99.90;;;;;;2603689;54;20060;31
2023/08/07 09:38:53;;;;;;;5.30;1.70;;;22.00;99.90;;;;;;2603540;54;20059;31
2023/08/07 09:41:35;;;;;;;5.32;1.90;;;22.30;99.90;;;;;;2603572;54;20026;31
2023/08/07 09:44:11;;;;;;;2.93;1.73;;;22.20;99.90;;;;;;2602978;54;20022;31
2023/08/07 09:46:50;;;;;;;3.50;1.70;;;21.90;99.90;;;;;;2612763;46;20912;31
2023/08/07 09:49:35;;;;;;;3.45;1.58;;;21.50;99.90;;;;;;2622016;46;20099;31
2023/08/07 09:54:47;;;;;;;3.20;1.65;;;21.40;99.90;;;;;;2603669;54;20120;31
2023/08/07 09:57:23;;;;;;;2.10;1.50;;;21.60;99.90;;;;;;2603322;54;20031;31
2023/08/07 09:59:58;;;;;;;5.20;1.60;;;21.70;99.90;;;;;;2603034;54;20038;31
2023/08/07 10:02:37;;;;;;;7.20;1.43;;;21.60;99.90;;;;;;2621802;46;20033;31
2023/08/07 10:05:16;;;;;;;3.95;1.30;;;21.40;99.90;;;;;;2602670;54;20242;31
2023/08/07 10:07:57;;;;;;;2.53;1.42;;;21.40;99.90;;;;;;2603119;54;20079;31
2023/08/07 10:10:33;;;;;;;3.22;1.42;;;21.30;99.90;;;;;;2603289;54;20032;31
2023/08/07 10:13:11;;;;;;;3.63;1.87;;;21.30;99.90;;;;;;2603377;54;19934;31
2023/08/07 10:15:53;;;;;;;3.20;1.30;;;21.30;99.90;;;;;;2602457;54;20805;31
2023/08/07 10:18:32;;;;;;;4.25;1.60;;;21.50;99.90;;;;;;2621807;46;20906;31
2023/08/07 10:21:08;;;;;;;6.10;1.50;;;21.70;99.90;;;;;;2621615;46;20913;31
2023/08/07 10:23:49;;;;;;;3.58;1.60;;;22.00;99.90;;;;;;2603206;54;21135;31
2023/08/07 10:26:25;;;;;;;4.10;1.35;;;21.90;99.90;;;;;;2603286;54;20027;31
2023/08/07 10:29:03;;;;;;;3.42;1.30;;;21.60;99.90;;;;;;2602444;54;20905;31
2023/08/07 10:31:44;;;;;;;2.92;1.45;;;21.60;99.90;;;;;;2603258;54;20026;31
2023/08/07 10:37:01;;;;;;;3.85;1.10;;;21.90;99.90;;;;;;2621866;46;20034;31
2023/08/07 10:39:38;;;;;;;5.25;1.17;;;22.00;99.90;;;;;;2603008;54;20851;31
2023/08/07 10:42:15;;;;;;;2.72;1.10;;;22.10;99.90;;;;;;2603153;54;20022;31
2023/08/07 10:44:54;;;;;;;4.03;1.45;;;21.90;99.90;;;;;;2621239;47;22369;31
2023/08/07 10:47:36;;;;;;;2.65;1.10;;;21.90;99.90;;;;;;2602952;54;20836;31
2023/08/07 10:50:13;;;;;;;2.20;1.15;;;21.80;99.90;;;;;;2602935;54;20034;31
2023/08/07 10:52:54;;;;;;;2.22;1.20;;;21.70;99.90;;;;;;2603268;54;20061;31
2023/08/07 10:55:47;;;;;;;2.17;0.95;;;21.60;99.90;;;;;;2602531;54;20030;31
2023/08/07 10:58:28;;;;;;;3.83;1.52;;;21.60;99.90;;;;;;2602951;54;20031;31
2023/08/07 11:01:27;;;;;;;2.85;1.20;;;21.40;99.90;;;;;;2603208;54;20852;31
2023/08/07 11:04:08;;;;;;;3.50;1.15;;;21.60;99.90;;;;;;2602878;54;20974;31
2023/08/07 11:06:44;;;;;;;4.68;1.30;;;21.80;99.90;;;;;;2603026;54;20775;31
2023/08/07 11:09:23;;;;;;;2.43;0.93;;;21.90;99.90;;;;;;2700846;39;20489;31
2023/08/07 11:11:59;;;;;;;3.75;1.25;;;21.80;99.90;;;;;;2603105;54;20024;31
2023/08/07 11:14:36;;;;;;;3.50;1.30;;;21.70;99.90;;;;;;2603010;54;20022;31
2023/08/07 11:17:14;;;;;;;2.78;1.27;;;21.50;99.90;;;;;;2701554;39;20444;31
2023/08/07 11:19:50;;;;;;;2.42;1.05;;;21.40;99.90;;;;;;2603151;54;20153;31
2023/08/07 11:22:28;;;;;;;3.28;1.20;;;21.20;99.90;;;;;;2602839;54;20027;31
2023/08/07 11:25:11;;;;;;;3.35;1.30;;;21.10;99.90;;;;;;2603023;54;20979;31
2023/08/07 11:27:47;;;;;;;4.32;1.58;;;21.10;99.90;;;;;;2621164;47;20848;31
2023/08/07 11:30:25;;;;;;;2.13;1.25;;;21.20;99.90;;;;;;2612134;47;21055;31
2023/08/07 11:33:03;;;;;;;2.55;1.35;;;21.40;99.90;;;;;;2602921;54;20868;31
2023/08/07 11:35:45;;;;;;;2.10;1.35;;;21.50;99.90;;;;;;2603116;54;20945;31
2023/08/07 11:41:06;;;;;;;2.00;1.30;;;21.50;99.90;;;;;;2603001;54;20116;31
2023/08/07 11:43:43;;;;;;;3.05;2.38;;;21.40;99.90;;;;;;2604011;54;20031;31
2023/08/07 11:46:19;;;;;;;3.70;1.30;;;21.40;99.90;;;;;;2622757;46;20027;31
2023/08/07 11:48:58;;;;;;;2.53;1.48;;;21.40;99.90;;;;;;2603590;54;20027;31
2023/08/07 11:51:36;;;;;;;4.70;1.77;;;21.40;99.90;;;;;;2603993;54;20046;31
2023/08/07 11:54:17;;;;;;;4.20;1.30;;;21.40;99.90;;;;;;2622337;46;20111;31
2023/08/07 11:57:01;;;;;;;1.90;0.90;;;21.30;99.90;;;;;;2622467;46;20052;31
2023/08/07 11:59:36;;;;;;;3.43;1.70;;;21.30;99.90;;;;;;2622136;46;20022;31
2023/08/07 12:02:14;;;;;;;1.55;1.15;;;21.30;99.90;;;;;;2615323;46;20923;31
2023/08/07 12:04:53;;;;;;;3.22;1.33;;;21.30;99.90;;;;;;2603795;54;20026;31
2023/08/07 12:07:29;;;;;;;3.03;1.10;;;21.40;99.90;;;;;;2603888;54;20038;31
2023/08/07 12:10:12;;;;;;;3.60;1.45;;;21.50;99.90;;;;;;2604478;46;20934;31
2023/08/07 12:12:51;;;;;;;3.80;1.20;;;21.80;99.90;;;;;;2603644;54;20033;31
2023/08/07 12:15:28;;;;;;;4.33;1.53;;;22.00;99.90;;;;;;2702306;39;21427;31
2023/08/07 12:18:05;;;;;;;3.25;0.90;;;21.90;99.90;;;;;;2603763;54;20023;31
2023/08/07 12:20:41;;;;;;;3.22;1.27;;;21.70;99.90;;;;;;2603516;54;20033;31
2023/08/07 12:23:19;;;;;;;1.20;0.90;;;21.70;99.90;;;;;;2603461;54;21605;31
2023/08/07 12:25:57;;;;;;;2.20;0.90;;;21.60;99.90;;;;;;2603678;54;20797;31
2023/08/07 12:28:38;;;;;;;1.65;1.17;;;21.70;99.90;;;;;;2702427;39;21030;31
2023/08/07 12:31:14;;;;;;;2.43;1.30;;;21.80;99.90;;;;;;2603632;54;20082;31
2023/08/07 12:33:53;;;;;;;1.67;1.05;;;21.90;99.90;;;;;;2603684;54;20030;31
2023/08/07 12:36:32;;;;;;;3.00;1.40;;;21.90;99.90;;;;;;2602790;54;20090;31
2023/08/07 12:39:08;;;;;;;3.55;1.10;;;22.00;99.90;;;;;;2603654;54;20022;31
2023/08/07 12:41:44;;;;;;;3.22;1.20;;;22.00;99.90;;;;;;2702035;39;21493;31
2023/08/07 12:44:45;;;;;;;6.63;1.55;;;22.00;99.90;;;;;;2720864;39;21393;31
2023/08/07 12:49:53;;;;;;;1.58;0.68;;;21.90;99.90;;;;;;2622373;46;20880;31
2023/08/07 12:52:37;;;;;;;2.97;1.13;;;21.80;99.90;;;;;;2603888;54;20108;31
2023/08/07 12:55:16;;;;;;;3.05;1.08;;;21.70;99.90;;;;;;2603712;54;20046;31
2023/08/07 12:57:52;;;;;;;3.45;1.00;;;21.50;99.90;;;;;;2602806;54;20346;31
2023/08/07 13:00:36;;;;;;;2.58;0.98;;;21.40;99.90;;;;;;2603672;54;21224;31
2023/08/07 13:03:12;;;;;;;1.98;1.02;;;21.40;99.90;;;;;;2622151;46;20081;31
2023/08/07 13:05:52;;;;;;;3.55;1.45;;;21.40;99.90;;;;;;2603807;54;20029;31
2023/08/07 13:08:27;;;;;;;3.25;1.33;;;21.40;99.90;;;;;;2602816;54;20787;31
2023/08/07 13:11:05;;;;;;;4.10;1.30;;;21.40;99.90;;;;;;2603675;54;20022;31
2023/08/07 13:13:41;;;;;;;2.65;1.50;;;21.40;99.90;;;;;;2603530;54;21213;31
2023/08/07 13:16:22;;;;;;;3.30;1.40;;;21.50;99.90;;;;;;2702094;39;21455;31
2023/08/07 13:19:01;;;;;;;3.13;1.23;;;21.40;99.90;;;;;;2603154;54;20586;31
2023/08/07 13:21:37;;;;;;;3.22;1.25;;;21.40;99.90;;;;;;2602961;54;20048;31
2023/08/07 13:24:16;;;;;;;3.20;1.00;;;21.40;99.90;;;;;;2603164;54;20042;31
2023/08/07 13:26:53;;;;;;;3.70;1.20;;;21.40;99.90;;;;;;2603665;54;20080;31
2023/08/07 13:29:32;;;;;;;5.88;1.17;;;21.30;99.90;;;;;;2603519;54;20912;31
2023/08/07 13:32:13;;;;;;;3.17;1.00;;;21.30;99.90;;;;;;2602703;54;20031;31
2023/08/07 13:34:49;;;;;;;4.00;0.98;;;21.30;99.90;;;;;;2602795;54;20057;31
2023/08/07 13:37:27;;;;;;;1.23;0.75;;;21.20;99.90;;;;;;2621928;46;20033;31
2023/08/07 13:40:04;;;;;;;3.75;1.35;;;21.10;99.90;;;;;;2602710;54;20034;31
2023/08/07 13:42:40;;;;;;;2.28;1.13;;;21.20;99.90;;;;;;2616037;46;21798;31
2023/08/07 13:45:16;;;;;;;1.47;1.03;;;21.20;99.90;;;;;;2719387;39;20485;31
2023/08/07 13:47:58;;;;;;;4.60;1.10;;;21.10;99.90;;;;;;2603330;54;20023;31
2023/08/07 13:50:40;;;;;;;1.70;1.00;;;21.10;99.90;;;;;;2603345;54;20925;31
2023/08/07 13:53:23;;;;;;;2.05;0.80;;;21.10;99.90;;;;;;2603479;54;20030;31
2023/08/07 13:56:01;;;;;;;2.20;1.10;;;21.20;99.90;;;;;;2622029;46;20062;31
2023/08/07 13:58:38;;;;;;;6.70;1.30;;;21.30;99.90;;;;;;2603054;54;20033;31
2023/08/07 14:01:14;;;;;;;2.55;1.10;;;21.40;99.90;;;;;;2602685;54;20104;31
2023/08/07 14:03:53;;;;;;;2.75;1.30;;;21.40;99.90;;;;;;2603331;54;20031;31